Time;durP1;ratioP1;P1;durP2;ratioP2;P2;SDS_P1;SDS_P2;PMS_P1;PMS_P2;Temp;Humidity;BMP_temperature;BMP_pressure;BME280_temperature;BME280_humidity;BME280_pressure;Samples;Min_cycle;Max_cycle;Signal;HPM_P1;HPM_P2
2022/04/29 00:00:14;;;;;;;;;;;15.50;69.50;;;;;;5028115;28;19959;-71
2022/04/29 00:02:40;;;;;;;;;;;15.40;69.30;;;;;;5030838;28;19913;-69
2022/04/29 00:05:05;;;;;;;;;;;15.40;69.70;;;;;;5029918;28;19931;-72
2022/04/29 00:07:31;;;;;;;;;;;15.30;69.60;;;;;;5028241;28;19916;-72
2022/04/29 00:09:56;;;;;;;;;;;15.40;70.10;;;;;;5026631;28;20385;-70
2022/04/29 00:12:22;;;;;;;;;;;15.30;71.00;;;;;;5027173;28;19928;-72
2022/04/29 00:14:48;;;;;;;;;;;15.20;71.10;;;;;;5027085;28;19964;-71
2022/04/29 00:17:13;;;;;;;;;;;15.20;71.00;;;;;;5029508;28;19913;-69
2022/04/29 00:19:40;;;;;;;;;;;15.10;71.10;;;;;;5030956;28;19979;-69
2022/04/29 00:22:05;;;;;;;;;;;15.10;70.70;;;;;;5029953;28;19919;-68
2022/04/29 00:24:31;;;;;;;;;;;15.10;71.20;;;;;;5025755;28;19996;-69
2022/04/29 00:26:58;;;;;;;;;;;15.10;71.40;;;;;;5030324;28;20297;-72
2022/04/29 00:29:24;;;;;;;;;;;15.00;72.00;;;;;;5038230;28;19959;-71
2022/04/29 00:31:50;;;;;;;;;;;14.90;72.00;;;;;;5031562;28;19918;-70
2022/04/29 00:34:16;;;;;;;;;;;14.80;72.00;;;;;;5026385;28;19943;-70
2022/04/29 00:36:41;;;;;;;;;;;14.80;71.90;;;;;;5030388;28;19913;-71
2022/04/29 00:39:07;;;;;;;;;;;14.80;71.70;;;;;;5029598;28;19913;-69
2022/04/29 00:41:32;;;;;;;;;;;14.80;72.80;;;;;;5026505;28;19914;-71
2022/04/29 00:44:08;;;;;;;;;;;14.80;72.30;;;;;;5035294;28;19909;-68
2022/04/29 00:46:38;;;;;;;;;;;14.70;72.80;;;;;;5033262;28;19956;-71
2022/04/29 00:49:05;;;;;;;;;;;14.60;73.20;;;;;;5030228;28;20388;-70
2022/04/29 00:51:31;;;;;;;;;;;14.60;74.20;;;;;;5031950;28;19932;-71
2022/04/29 00:53:57;;;;;;;;;;;14.50;74.10;;;;;;5031222;28;20294;-71
2022/04/29 00:56:23;;;;;;;;;;;14.50;73.50;;;;;;5034263;28;20325;-71
2022/04/29 00:59:09;;;;;;;;;;;14.40;74.10;;;;;;5052628;28;19978;-69
2022/04/29 01:01:36;;;;;;;;;;;14.40;73.50;;;;;;5032884;28;19986;-70
2022/04/29 01:04:02;;;;;;;;;;;14.40;74.30;;;;;;5032787;28;20008;-70
2022/04/29 01:06:28;;;;;;;;;;;14.40;74.20;;;;;;5030010;28;19939;-71
2022/04/29 01:08:53;;;;;;;;;;;14.30;75.20;;;;;;5031938;28;20019;-71
2022/04/29 01:11:21;;;;;;;;;;;14.30;75.00;;;;;;5031529;28;19960;-69
2022/04/29 01:13:48;;;;;;;;;;;14.30;75.00;;;;;;5033504;28;20015;-70
2022/04/29 01:16:13;;;;;;;;;;;14.20;75.20;;;;;;5029426;28;19939;-72
2022/04/29 01:18:41;;;;;;;;;;;14.20;75.50;;;;;;5036616;28;19918;-70
2022/04/29 01:21:06;;;;;;;;;;;14.20;75.50;;;;;;5029479;28;19925;-70
2022/04/29 01:23:33;;;;;;;;;;;14.20;75.10;;;;;;5031788;28;19917;-68
2022/04/29 01:25:58;;;;;;;;;;;14.10;75.40;;;;;;5053606;28;20417;-69
2022/04/29 01:28:24;;;;;;;;;;;14.10;74.90;;;;;;5040724;28;19921;-67
2022/04/29 01:30:51;;;;;;;;;;;14.10;75.10;;;;;;5033262;28;19928;-70
2022/04/29 01:33:17;;;;;;;;;;;14.10;75.40;;;;;;5029342;28;20271;-69
2022/04/29 01:35:43;;;;;;;;;;;14.00;75.80;;;;;;5033160;28;20334;-69
2022/04/29 01:38:09;;;;;;;;;;;14.00;76.20;;;;;;5041392;28;19909;-71
2022/04/29 01:40:34;;;;;;;;;;;13.90;75.90;;;;;;5033807;28;20511;-70
2022/04/29 01:43:02;;;;;;;;;;;13.90;75.90;;;;;;5036375;28;19917;-70
2022/04/29 01:45:28;;;;;;;;;;;13.90;76.50;;;;;;5038683;28;19967;-71
2022/04/29 01:47:53;;;;;;;;;;;13.80;76.20;;;;;;5028979;28;20359;-69
2022/04/29 01:50:19;;;;;;;;;;;13.80;76.30;;;;;;5031446;28;19913;-69
2022/04/29 01:52:44;;;;;;;;;;;13.80;76.60;;;;;;5031801;28;19975;-69
2022/04/29 01:55:10;;;;;;;;;;;13.80;76.80;;;;;;5033571;28;19913;-70
2022/04/29 01:57:35;;;;;;;;;;;13.70;76.70;;;;;;5039066;28;19939;-69
2022/04/29 02:00:01;;;;;;;;;;;13.70;76.60;;;;;;5035621;28;19913;-72
2022/04/29 02:02:27;;;;;;;;;;;13.70;76.90;;;;;;5032933;28;20300;-73
2022/04/29 02:04:52;;;;;;;;;;;13.70;76.80;;;;;;5045076;28;19909;-70
2022/04/29 02:07:18;;;;;;;;;;;13.70;76.00;;;;;;5029489;28;20413;-72
2022/04/29 02:09:44;;;;;;;;;;;13.70;76.40;;;;;;5030212;28;19939;-71
2022/04/29 02:12:11;;;;;;;;;;;13.70;76.60;;;;;;5032540;28;19921;-70
2022/04/29 02:14:41;;;;;;;;;;;13.70;76.40;;;;;;5032276;28;19917;-74
2022/04/29 02:17:07;;;;;;;;;;;13.70;77.30;;;;;;5043908;28;19920;-71
2022/04/29 02:19:33;;;;;;;;;;;13.60;76.60;;;;;;5030700;28;19913;-72
2022/04/29 02:22:00;;;;;;;;;;;13.60;77.20;;;;;;5032943;28;19909;-72
2022/04/29 02:24:26;;;;;;;;;;;13.60;77.50;;;;;;5028536;28;19952;-72
2022/04/29 02:26:52;;;;;;;;;;;13.60;77.70;;;;;;5035101;28;19916;-71
2022/04/29 02:29:17;;;;;;;;;;;13.50;77.40;;;;;;5045728;28;20719;-71
2022/04/29 02:31:43;;;;;;;;;;;13.50;78.10;;;;;;5031009;28;19921;-73
2022/04/29 02:34:08;;;;;;;;;;;13.50;77.80;;;;;;5027716;28;20446;-71
2022/04/29 02:36:34;;;;;;;;;;;13.40;78.30;;;;;;5030302;28;20015;-71
2022/04/29 02:39:02;;;;;;;;;;;13.40;78.20;;;;;;5028090;28;19909;-70
2022/04/29 02:41:27;;;;;;;;;;;13.40;78.30;;;;;;5032480;28;20372;-70
2022/04/29 02:43:52;;;;;;;;;;;13.40;77.50;;;;;;5031339;28;19914;-72
2022/04/29 02:46:18;;;;;;;;;;;13.40;78.20;;;;;;5031710;28;19921;-70
2022/04/29 02:48:46;;;;;;;;;;;13.40;78.30;;;;;;5028097;28;20569;-71
2022/04/29 02:51:12;;;;;;;;;;;13.40;77.60;;;;;;5028103;28;20440;-69
2022/04/29 02:53:37;;;;;;;;;;;13.30;78.20;;;;;;5029328;28;19918;-69
2022/04/29 02:56:03;;;;;;;;;;;13.30;78.00;;;;;;5032416;28;19932;-70
2022/04/29 02:58:29;;;;;;;;;;;13.30;78.30;;;;;;5028040;28;20341;-73
2022/04/29 03:00:56;;;;;;;;;;;13.30;78.00;;;;;;5029724;28;19948;-72
2022/04/29 03:03:21;;;;;;;;;;;13.30;78.10;;;;;;5028648;28;19913;-69
2022/04/29 03:05:47;;;;;;;;;;;13.30;78.20;;;;;;5027033;28;19917;-71
2022/04/29 03:08:12;;;;;;;;;;;13.30;78.50;;;;;;5042764;28;19909;-71
2022/04/29 03:10:38;;;;;;;;;;;13.30;78.10;;;;;;5029790;28;19921;-72
2022/04/29 03:13:04;;;;;;;;;;;13.30;78.10;;;;;;5033483;28;19920;-70
2022/04/29 03:15:30;;;;;;;;;;;13.30;78.10;;;;;;5027751;28;19921;-70
2022/04/29 03:20:40;;;;;;;;;;;13.30;78.30;;;;;;5031810;28;19993;-72
2022/04/29 03:23:06;;;;;;;;;;;13.30;78.20;;;;;;5031186;28;20011;-73
2022/04/29 03:25:32;;;;;;;;;;;13.30;78.60;;;;;;5028116;28;19913;-70
2022/04/29 03:27:58;;;;;;;;;;;13.30;78.60;;;;;;5027375;28;19910;-71
2022/04/29 03:30:23;;;;;;;;;;;13.30;78.30;;;;;;5041782;28;20345;-72
2022/04/29 03:32:59;;;;;;;;;;;13.30;78.70;;;;;;5044186;28;19921;-70
2022/04/29 03:35:25;;;;;;;;;;;13.30;78.80;;;;;;5033601;28;19960;-71
2022/04/29 03:37:53;;;;;;;;;;;13.20;78.30;;;;;;5031741;28;19915;-71
2022/04/29 03:40:22;;;;;;;;;;;13.30;79.00;;;;;;5026525;28;19928;-69
2022/04/29 03:42:57;;;;;;;;;;;13.20;78.70;;;;;;5027060;28;19967;-68
2022/04/29 03:45:23;;;;;;;;;;;13.20;78.90;;;;;;5037293;28;19937;-72
2022/04/29 03:47:49;;;;;;;;;;;13.20;78.80;;;;;;5026457;28;19921;-71
2022/04/29 03:50:15;;;;;;;;;;;13.20;79.20;;;;;;5029635;28;19924;-70
2022/04/29 03:52:46;;;;;;;;;;;13.20;79.20;;;;;;5036328;28;19917;-71
2022/04/29 03:55:14;;;;;;;;;;;13.10;79.90;;;;;;5031579;28;20154;-71
2022/04/29 03:57:39;;;;;;;;;;;13.10;79.20;;;;;;5029890;28;19913;-71
2022/04/29 04:00:05;;;;;;;;;;;13.10;79.40;;;;;;5026458;28;20003;-72
2022/04/29 04:02:31;;;;;;;;;;;13.00;79.70;;;;;;5026934;28;20029;-72
2022/04/29 04:04:56;;;;;;;;;;;13.00;79.50;;;;;;5031673;28;19909;-69
2022/04/29 04:07:22;;;;;;;;;;;13.00;79.40;;;;;;5026541;28;19913;-71
2022/04/29 04:09:47;;;;;;;;;;;13.10;79.50;;;;;;5027579;28;19919;-70
2022/04/29 04:12:13;;;;;;;;;;;13.10;79.70;;;;;;5026624;28;19995;-67
2022/04/29 04:14:38;;;;;;;;;;;13.00;79.90;;;;;;5027090;28;20089;-70
2022/04/29 04:17:04;;;;;;;;;;;13.00;79.80;;;;;;5035658;28;19956;-70
2022/04/29 04:19:30;;;;;;;;;;;13.00;79.70;;;;;;5028316;28;20321;-68
2022/04/29 04:21:55;;;;;;;;;;;13.00;80.00;;;;;;5028777;28;19960;-67
2022/04/29 04:24:21;;;;;;;;;;;13.00;80.20;;;;;;5026472;28;19917;-69
2022/04/29 04:26:46;;;;;;;;;;;12.90;79.80;;;;;;5026281;28;20448;-68
2022/04/29 04:29:12;;;;;;;;;;;12.90;79.90;;;;;;5032058;28;19909;-68
2022/04/29 04:31:37;;;;;;;;;;;12.90;80.10;;;;;;5030224;28;19959;-67
2022/04/29 04:34:49;;;;;;;;;;;12.90;80.10;;;;;;5026058;28;20267;-69
2022/04/29 04:36:52;;;;;;;;;;;12.90;80.50;;;;;;5042012;28;19913;-67
2022/04/29 04:39:18;;;;;;;;;;;12.90;80.40;;;;;;5035637;28;19920;-70
2022/04/29 04:41:44;;;;;;;;;;;12.90;80.40;;;;;;5026710;28;19913;-69
2022/04/29 04:44:09;;;;;;;;;;;12.90;80.60;;;;;;5042340;28;19917;-69
2022/04/29 04:46:38;;;;;;;;;;;12.80;80.80;;;;;;5029620;28;19929;-68
2022/04/29 04:49:03;;;;;;;;;;;12.80;80.60;;;;;;5026602;28;19913;-68
2022/04/29 04:51:29;;;;;;;;;;;12.80;80.70;;;;;;5030242;28;19917;-69
2022/04/29 04:53:54;;;;;;;;;;;12.80;81.10;;;;;;5035392;28;20059;-69
2022/04/29 04:56:20;;;;;;;;;;;12.80;81.20;;;;;;5029607;28;19909;-70
2022/04/29 04:58:45;;;;;;;;;;;12.70;81.70;;;;;;5031350;28;19912;-67
2022/04/29 05:01:11;;;;;;;;;;;12.70;81.40;;;;;;5027057;28;19917;-70
2022/04/29 05:03:37;;;;;;;;;;;12.70;81.50;;;;;;5029785;28;19996;-72
2022/04/29 05:06:02;;;;;;;;;;;12.60;81.80;;;;;;5026509;28;19913;-70
2022/04/29 05:08:28;;;;;;;;;;;12.70;81.50;;;;;;5028524;28;19920;-70
2022/04/29 05:10:53;;;;;;;;;;;12.70;81.40;;;;;;5030085;28;19913;-71
2022/04/29 05:13:19;;;;;;;;;;;12.70;81.30;;;;;;5026987;28;19917;-69
2022/04/29 05:15:44;;;;;;;;;;;12.70;81.00;;;;;;5027247;28;20390;-71
2022/04/29 05:18:10;;;;;;;;;;;12.70;81.00;;;;;;5036992;28;19910;-70
2022/04/29 05:20:35;;;;;;;;;;;12.70;81.20;;;;;;5027132;28;19921;-69
2022/04/29 05:23:01;;;;;;;;;;;12.70;81.90;;;;;;5030526;28;19913;-67
2022/04/29 05:25:26;;;;;;;;;;;12.70;81.50;;;;;;5042543;28;20285;-68
2022/04/29 05:27:52;;;;;;;;;;;12.70;81.30;;;;;;5032564;28;20007;-67
2022/04/29 05:30:17;;;;;;;;;;;12.70;81.30;;;;;;5033330;28;19909;-69
2022/04/29 05:32:43;;;;;;;;;;;12.70;81.30;;;;;;5030239;28;20402;-69
2022/04/29 05:35:09;;;;;;;;;;;12.60;81.10;;;;;;5044875;28;19916;-68
2022/04/29 05:37:35;;;;;;;;;;;12.60;81.30;;;;;;5045457;28;19913;-68
2022/04/29 05:42:45;;;;;;;;;;;12.60;81.30;;;;;;5033571;28;20298;-67
2022/04/29 05:45:10;;;;;;;;;;;12.70;81.40;;;;;;5041762;28;20365;-65
2022/04/29 05:47:36;;;;;;;;;;;12.70;81.40;;;;;;5029416;28;19929;-68
2022/04/29 05:50:03;;;;;;;;;;;12.60;81.10;;;;;;5053270;28;19909;-64
2022/04/29 05:52:28;;;;;;;;;;;12.60;81.20;;;;;;5029474;28;20478;-66
2022/04/29 05:54:54;;;;;;;;;;;12.60;81.30;;;;;;5038833;28;19913;-67
2022/04/29 05:57:19;;;;;;;;;;;12.60;81.50;;;;;;5039887;28;19913;-70
2022/04/29 05:59:45;;;;;;;;;;;12.60;81.60;;;;;;5029365;28;19945;-68
2022/04/29 06:02:10;;;;;;;;;;;12.60;81.50;;;;;;5043091;28;19916;-70
2022/04/29 06:04:36;;;;;;;;;;;12.60;81.60;;;;;;5033659;28;20321;-69
2022/04/29 06:07:01;;;;;;;;;;;12.60;81.50;;;;;;5033088;28;19971;-68
2022/04/29 06:09:27;;;;;;;;;;;12.60;81.50;;;;;;5032305;28;19939;-68
2022/04/29 06:11:53;;;;;;;;;;;12.60;81.50;;;;;;5029914;28;19932;-68
2022/04/29 06:14:18;;;;;;;;;;;12.60;81.50;;;;;;5045012;28;19923;-69
2022/04/29 06:16:45;;;;;;;;;;;12.70;81.50;;;;;;5031546;28;19909;-68
2022/04/29 06:19:11;;;;;;;;;;;12.70;81.40;;;;;;5032239;28;19917;-69
2022/04/29 06:21:38;;;;;;;;;;;12.70;81.20;;;;;;5035969;28;19917;-69
2022/04/29 06:24:04;;;;;;;;;;;12.70;81.50;;;;;;5032609;28;19913;-69
2022/04/29 06:26:30;;;;;;;;;;;12.70;81.70;;;;;;5029579;28;20158;-68
2022/04/29 06:28:55;;;;;;;;;;;12.70;81.60;;;;;;5035330;28;19928;-69
2022/04/29 06:31:21;;;;;;;;;;;12.70;81.30;;;;;;5029262;28;19921;-68
2022/04/29 06:33:46;;;;;;;;;;;12.80;81.50;;;;;;5036934;28;20042;-65
2022/04/29 06:36:12;;;;;;;;;;;12.80;81.20;;;;;;5037782;28;19913;-60
2022/04/29 06:38:37;;;;;;;;;;;12.90;82.00;;;;;;5027249;28;20720;-68
2022/04/29 06:41:03;;;;;;;;;;;12.90;81.40;;;;;;5031836;28;19913;-67
2022/04/29 06:43:30;;;;;;;;;;;13.00;81.20;;;;;;5047249;28;19912;-60
2022/04/29 06:45:55;;;;;;;;;;;13.00;81.30;;;;;;5031634;28;19924;-58
2022/04/29 06:48:21;;;;;;;;;;;13.00;81.00;;;;;;5032198;28;19921;-58
2022/04/29 06:50:46;;;;;;;;;;;13.00;81.10;;;;;;5030700;28;20290;-58
2022/04/29 06:53:12;;;;;;;;;;;13.10;81.10;;;;;;5035585;28;20374;-59
2022/04/29 06:55:40;;;;;;;;;;;13.10;80.90;;;;;;5035592;28;19955;-59
2022/04/29 06:58:06;;;;;;;;;;;13.10;81.00;;;;;;5032712;28;19916;-60
2022/04/29 07:00:32;;;;;;;;;;;13.20;81.30;;;;;;5033856;28;19930;-60
2022/04/29 07:03:01;;;;;;;;;;;13.20;80.80;;;;;;5031570;28;19959;-59
2022/04/29 07:05:28;;;;;;;;;;;13.20;80.80;;;;;;5031316;28;20461;-59
2022/04/29 07:07:53;;;;;;;;;;;13.20;80.80;;;;;;5043348;28;19916;-57
2022/04/29 07:10:19;;;;;;;;;;;13.20;81.60;;;;;;5040370;28;19917;-57
2022/04/29 07:12:46;;;;;;;;;;;13.20;81.00;;;;;;5034112;28;19951;-58
2022/04/29 07:15:13;;;;;;;;;;;13.30;80.70;;;;;;5025944;28;19913;-58
2022/04/29 07:17:39;;;;;;;;;;;13.30;80.90;;;;;;5044031;28;20025;-58
2022/04/29 07:20:06;;;;;;;;;;;13.20;80.80;;;;;;5041007;28;19909;-60
2022/04/29 07:22:31;;;;;;;;;;;13.30;81.10;;;;;;5034613;28;19909;-67
2022/04/29 07:24:57;;;;;;;;;;;13.30;81.10;;;;;;5031334;28;19921;-63
2022/04/29 07:27:22;;;;;;;;;;;13.30;80.80;;;;;;5022703;28;19940;-61
2022/04/29 07:29:48;;;;;;;;;;;13.30;80.90;;;;;;5025562;28;19918;-59
2022/04/29 07:32:13;;;;;;;;;;;13.20;80.90;;;;;;5019839;28;19925;-59
2022/04/29 07:42:51;;;;;;;;;;;13.20;81.50;;;;;;5024417;28;19976;-60
2022/04/29 07:45:17;;;;;;;;;;;13.20;81.70;;;;;;5029518;28;20335;-60
2022/04/29 07:47:42;;;;;;;;;;;13.20;81.60;;;;;;5021488;28;19921;-58
2022/04/29 07:50:08;;;;;;;;;;;13.30;81.70;;;;;;5021907;28;19914;-60
2022/04/29 07:52:34;;;;;;;;;;;13.30;81.80;;;;;;5028384;28;20382;-60
2022/04/29 07:55:00;;;;;;;;;;;13.30;81.90;;;;;;5023950;28;19921;-59
2022/04/29 07:57:26;;;;;;;;;;;13.30;82.00;;;;;;5059526;28;19944;-57
2022/04/29 07:59:51;;;;;;;;;;;13.30;81.90;;;;;;5028540;28;19921;-60
2022/04/29 08:02:17;;;;;;;;;;;13.40;81.90;;;;;;5023589;28;19925;-61
2022/04/29 08:04:42;;;;;;;;;;;13.40;82.40;;;;;;5026119;28;19913;-60
2022/04/29 08:07:08;;;;;;;;;;;13.40;82.00;;;;;;5028617;28;19936;-60
2022/04/29 08:09:33;;;;;;;;;;;13.50;82.20;;;;;;5025229;28;19917;-60
2022/04/29 08:11:59;;;;;;;;;;;13.50;82.30;;;;;;5025175;28;19928;-59
2022/04/29 08:14:26;;;;;;;;;;;13.60;82.50;;;;;;5025717;28;19960;-59
2022/04/29 08:16:52;;;;;;;;;;;13.60;82.20;;;;;;5028003;28;19925;-60
2022/04/29 08:19:18;;;;;;;;;;;13.70;82.30;;;;;;5025523;28;19926;-60
2022/04/29 08:21:43;;;;;;;;;;;13.60;82.40;;;;;;5026283;28;19963;-60
2022/04/29 08:24:09;;;;;;;;;;;13.70;82.60;;;;;;5026235;28;19960;-60
2022/04/29 08:26:35;;;;;;;;;;;13.60;82.50;;;;;;5026438;28;19913;-60
2022/04/29 08:29:00;;;;;;;;;;;13.60;82.70;;;;;;5026192;28;20008;-58
2022/04/29 08:31:26;;;;;;;;;;;13.60;83.00;;;;;;5023893;28;20386;-62
2022/04/29 08:33:51;;;;;;;;;;;13.70;82.90;;;;;;5024217;28;20008;-60
2022/04/29 08:36:17;;;;;;;;;;;13.80;82.90;;;;;;5023399;28;20012;-60
2022/04/29 08:38:43;;;;;;;;;;;13.90;82.80;;;;;;5020115;28;19913;-60
2022/04/29 08:41:09;;;;;;;;;;;13.90;82.80;;;;;;5024913;28;20066;-59
2022/04/29 08:43:34;;;;;;;;;;;13.90;82.40;;;;;;5029287;28;20476;-60
2022/04/29 08:46:00;;;;;;;;;;;13.90;82.80;;;;;;5024318;28;19918;-61
2022/04/29 08:48:28;;;;;;;;;;;13.90;82.90;;;;;;5022079;28;19922;-60
2022/04/29 08:50:54;;;;;;;;;;;13.90;82.80;;;;;;5023789;28;19913;-62
2022/04/29 08:53:20;;;;;;;;;;;14.00;82.80;;;;;;5023970;28;19923;-62
2022/04/29 08:58:39;;;;;;;;;;;14.10;82.70;;;;;;5024247;28;20009;-61
2022/04/29 09:01:06;;;;;;;;;;;14.20;82.70;;;;;;5025747;28;19913;-61
2022/04/29 09:03:32;;;;;;;;;;;14.30;82.30;;;;;;5024129;28;19917;-62
2022/04/29 09:05:57;;;;;;;;;;;14.30;82.10;;;;;;5057460;28;20427;-62
2022/04/29 09:08:23;;;;;;;;;;;14.40;82.20;;;;;;5027694;28;19924;-62
2022/04/29 09:10:51;;;;;;;;;;;14.40;81.90;;;;;;5032669;28;19924;-62
2022/04/29 09:13:20;;;;;;;;;;;14.40;82.10;;;;;;5031960;28;19925;-61
2022/04/29 09:15:47;;;;;;;;;;;14.40;82.20;;;;;;5032119;28;19920;-61
2022/04/29 09:18:13;;;;;;;;;;;14.50;81.80;;;;;;5027918;28;19913;-63
2022/04/29 09:20:39;;;;;;;;;;;14.50;81.80;;;;;;5026582;28;19921;-63
2022/04/29 09:23:04;;;;;;;;;;;14.60;82.00;;;;;;5031449;28;19920;-62
2022/04/29 09:25:36;;;;;;;;;;;14.60;81.90;;;;;;5031190;28;19914;-60
2022/04/29 09:28:03;;;;;;;;;;;14.70;81.70;;;;;;5030011;28;19913;-60
2022/04/29 09:30:32;;;;;;;;;;;14.70;81.70;;;;;;5030721;28;19913;-61
2022/04/29 09:32:58;;;;;;;;;;;14.80;81.70;;;;;;5026522;28;19967;-63
2022/04/29 09:35:36;;;;;;;;;;;14.80;81.70;;;;;;5024886;28;19918;-60
2022/04/29 09:40:47;;;;;;;;;;;15.00;81.40;;;;;;5028657;28;19920;-63
2022/04/29 09:43:12;;;;;;;;;;;15.10;81.20;;;;;;5032758;28;19912;-60
2022/04/29 09:45:38;;;;;;;;;;;15.30;81.40;;;;;;5025170;28;19917;-60
2022/04/29 09:48:07;;;;;;;;;;;15.40;80.90;;;;;;5027601;28;20299;-61
2022/04/29 09:50:52;;;;;;;;;;;15.50;80.20;;;;;;5022458;28;19944;-58
2022/04/29 09:53:23;;;;;;;;;;;15.60;81.00;;;;;;5032721;28;19932;-63
2022/04/29 09:56:05;;;;;;;;;;;15.70;80.20;;;;;;5028423;28;19949;-62
2022/04/29 09:58:31;;;;;;;;;;;15.90;80.00;;;;;;5026401;28;19914;-61
2022/04/29 10:00:58;;;;;;;;;;;15.90;79.90;;;;;;5026664;28;19920;-61
2022/04/29 10:03:23;;;;;;;;;;;16.00;79.20;;;;;;5025619;28;19920;-60
2022/04/29 10:05:50;;;;;;;;;;;16.00;79.40;;;;;;5024144;28;19914;-61
2022/04/29 10:08:17;;;;;;;;;;;16.00;80.10;;;;;;5026355;28;20404;-63
2022/04/29 10:10:42;;;;;;;;;;;16.10;78.90;;;;;;5030711;28;19917;-63
2022/04/29 10:13:08;;;;;;;;;;;16.20;79.10;;;;;;5023653;28;20015;-62
2022/04/29 10:15:34;;;;;;;;;;;16.20;78.10;;;;;;5027232;28;19920;-62
2022/04/29 10:23:32;;;;;;;;;;;16.40;77.80;;;;;;5025246;28;19924;-62
2022/04/29 10:25:57;;;;;;;;;;;16.50;77.20;;;;;;5030756;28;19940;-62
2022/04/29 10:28:23;;;;;;;;;;;16.50;77.50;;;;;;5024803;28;19964;-63
2022/04/29 10:31:03;;;;;;;;;;;16.60;76.70;;;;;;5027105;28;19951;-62
2022/04/29 10:33:29;;;;;;;;;;;16.60;77.00;;;;;;5024495;28;19921;-60
2022/04/29 10:35:59;;;;;;;;;;;16.60;76.10;;;;;;5026111;28;19921;-60
2022/04/29 10:38:30;;;;;;;;;;;16.70;76.60;;;;;;5024232;28;19917;-59
2022/04/29 10:41:15;;;;;;;;;;;16.70;76.30;;;;;;5028875;28;19964;-60
2022/04/29 10:43:49;;;;;;;;;;;16.80;76.20;;;;;;5026165;28;19913;-61
2022/04/29 10:46:16;;;;;;;;;;;16.90;75.10;;;;;;5021189;28;19933;-62
2022/04/29 10:48:42;;;;;;;;;;;16.90;75.70;;;;;;5028613;28;19924;-61
2022/04/29 10:51:08;;;;;;;;;;;17.00;74.50;;;;;;5027534;28;19920;-60
2022/04/29 10:53:41;;;;;;;;;;;17.10;74.60;;;;;;5039036;28;19921;-61
2022/04/29 10:56:25;;;;;;;;;;;17.10;74.70;;;;;;5020158;28;19921;-61
2022/04/29 10:58:50;;;;;;;;;;;17.20;74.40;;;;;;5025126;28;19914;-60
2022/04/29 11:01:27;;;;;;;;;;;17.20;73.30;;;;;;5026213;28;19941;-60
2022/04/29 11:03:53;;;;;;;;;;;17.30;74.40;;;;;;5026480;28;19940;-62
2022/04/29 11:06:19;;;;;;;;;;;17.30;74.30;;;;;;5025952;28;20655;-61
2022/04/29 11:08:46;;;;;;;;;;;17.30;74.30;;;;;;5021431;28;20047;-62
2022/04/29 11:11:12;;;;;;;;;;;17.40;74.10;;;;;;5025985;28;19921;-63
2022/04/29 11:13:47;;;;;;;;;;;17.40;75.40;;;;;;5029458;28;19924;-61
2022/04/29 11:16:16;;;;;;;;;;;17.50;74.70;;;;;;5024262;28;19913;-62
2022/04/29 11:18:43;;;;;;;;;;;17.50;73.90;;;;;;5023983;28;20051;-59
2022/04/29 11:26:46;;;;;;;;;;;17.50;74.20;;;;;;5019902;28;19943;-60
2022/04/29 11:29:12;;;;;;;;;;;17.50;73.70;;;;;;5024792;28;20491;-61
2022/04/29 11:31:37;;;;;;;;;;;17.50;73.40;;;;;;5027351;28;19925;-60
2022/04/29 11:34:06;;;;;;;;;;;17.40;73.80;;;;;;5024158;28;19913;-60
2022/04/29 11:36:31;;;;;;;;;;;17.40;72.70;;;;;;5022445;28;19924;-60
2022/04/29 11:38:57;;;;;;;;;;;17.40;72.60;;;;;;5030553;28;19913;-61
2022/04/29 11:41:27;;;;;;;;;;;17.40;72.50;;;;;;5036933;28;19912;-61
2022/04/29 11:43:53;;;;;;;;;;;17.50;73.40;;;;;;5049624;28;19912;-60
2022/04/29 11:46:20;;;;;;;;;;;17.50;72.90;;;;;;5041353;28;19913;-63
2022/04/29 11:48:52;;;;;;;;;;;17.50;71.80;;;;;;5039195;28;19913;-61
2022/04/29 11:51:18;;;;;;;;;;;17.50;72.20;;;;;;5045430;28;19990;-60
2022/04/29 11:53:53;;;;;;;;;;;17.60;71.80;;;;;;5042615;28;20313;-62
2022/04/29 11:56:19;;;;;;;;;;;17.60;72.40;;;;;;5046708;28;19909;-61
2022/04/29 11:58:44;;;;;;;;;;;17.60;72.10;;;;;;5042910;28;19909;-63
2022/04/29 12:01:10;;;;;;;;;;;17.70;71.40;;;;;;5043182;28;20370;-65
2022/04/29 12:03:36;;;;;;;;;;;17.70;71.70;;;;;;5041919;28;19992;-66
2022/04/29 12:06:03;;;;;;;;;;;17.70;71.50;;;;;;5036219;28;20492;-65
2022/04/29 12:08:39;;;;;;;;;;;17.60;71.40;;;;;;5027663;28;19921;-65
2022/04/29 12:11:04;;;;;;;;;;;17.60;71.60;;;;;;5028949;28;19940;-62
2022/04/29 12:13:30;;;;;;;;;;;17.50;71.30;;;;;;5032438;28;19935;-62
2022/04/29 12:15:56;;;;;;;;;;;17.50;71.40;;;;;;5033735;28;20085;-62
2022/04/29 12:18:36;;;;;;;;;;;17.50;71.40;;;;;;5026665;28;19917;-61
2022/04/29 12:21:01;;;;;;;;;;;17.50;70.90;;;;;;5028258;28;19917;-62
2022/04/29 12:23:31;;;;;;;;;;;17.50;70.40;;;;;;5027511;28;20374;-62
2022/04/29 12:25:58;;;;;;;;;;;17.40;70.10;;;;;;5030434;28;19919;-63
2022/04/29 12:28:26;;;;;;;;;;;17.50;70.30;;;;;;5027362;28;19914;-62
2022/04/29 12:36:45;;;;;;;;;;;17.60;69.70;;;;;;5030523;28;20404;-61
2022/04/29 12:39:10;;;;;;;;;;;17.60;70.20;;;;;;5038741;28;19920;-61
2022/04/29 12:41:36;;;;;;;;;;;17.80;70.20;;;;;;5026462;28;19917;-62
2022/04/29 12:44:07;;;;;;;;;;;17.80;70.20;;;;;;5029706;28;19954;-62
2022/04/29 12:46:33;;;;;;;;;;;17.80;69.90;;;;;;5033071;28;19920;-62
2022/04/29 12:48:58;;;;;;;;;;;17.80;69.70;;;;;;5035359;28;20017;-60
2022/04/29 12:51:25;;;;;;;;;;;17.80;69.30;;;;;;5031247;28;20438;-60
2022/04/29 12:53:51;;;;;;;;;;;17.70;68.90;;;;;;5041650;28;19917;-60
2022/04/29 12:56:47;;;;;;;;;;;17.70;69.60;;;;;;5046468;28;19909;-58
2022/04/29 12:59:21;;;;;;;;;;;17.70;69.40;;;;;;5025649;28;19909;-60
2022/04/29 13:01:47;;;;;;;;;;;17.80;69.70;;;;;;5031626;28;19916;-59
2022/04/29 13:04:13;;;;;;;;;;;17.90;69.90;;;;;;5028658;28;19913;-62
2022/04/29 13:06:38;;;;;;;;;;;18.00;68.80;;;;;;5029594;28;19917;-62
2022/04/29 13:09:04;;;;;;;;;;;18.00;68.40;;;;;;5025705;28;19913;-59
2022/04/29 13:11:30;;;;;;;;;;;18.00;68.10;;;;;;5029361;28;20406;-62
2022/04/29 13:13:56;;;;;;;;;;;18.00;68.30;;;;;;5049813;28;20353;-62
2022/04/29 13:16:22;;;;;;;;;;;18.10;68.60;;;;;;5027059;28;19920;-64
2022/04/29 13:18:48;;;;;;;;;;;18.10;68.90;;;;;;5019849;28;20438;-63
2022/04/29 13:21:14;;;;;;;;;;;18.10;68.30;;;;;;5029779;28;19913;-64
2022/04/29 13:23:41;;;;;;;;;;;18.10;67.90;;;;;;5024280;28;19920;-64
2022/04/29 13:26:07;;;;;;;;;;;18.10;67.90;;;;;;5026893;28;19913;-62
2022/04/29 13:28:34;;;;;;;;;;;18.20;67.50;;;;;;5026472;28;20283;-63
2022/04/29 13:31:00;;;;;;;;;;;18.30;67.50;;;;;;5033375;28;19956;-61
2022/04/29 13:33:25;;;;;;;;;;;18.30;67.40;;;;;;5027377;28;19917;-59
2022/04/29 13:35:51;;;;;;;;;;;18.30;67.00;;;;;;5027029;28;19920;-63
2022/04/29 13:38:17;;;;;;;;;;;18.30;66.90;;;;;;5027667;28;19924;-64
2022/04/29 13:40:44;;;;;;;;;;;18.30;66.50;;;;;;5030801;28;19959;-61
2022/04/29 13:43:13;;;;;;;;;;;18.40;65.60;;;;;;5029592;28;19913;-65
2022/04/29 13:45:39;;;;;;;;;;;18.30;64.90;;;;;;5015811;28;19924;-65
2022/04/29 13:48:05;;;;;;;;;;;18.30;66.30;;;;;;5022138;28;20001;-64
2022/04/29 13:50:31;;;;;;;;;;;18.30;66.20;;;;;;5025049;28;20321;-63
2022/04/29 13:53:08;;;;;;;;;;;18.30;66.00;;;;;;5025945;28;20409;-65
2022/04/29 13:55:47;;;;;;;;;;;18.30;66.10;;;;;;5018601;28;19913;-65
2022/04/29 13:58:17;;;;;;;;;;;18.30;66.00;;;;;;5027187;28;19925;-64
2022/04/29 14:00:43;;;;;;;;;;;18.40;63.90;;;;;;5027144;28;19920;-64
2022/04/29 14:03:12;;;;;;;;;;;18.40;65.20;;;;;;5024032;28;19913;-62
2022/04/29 14:05:37;;;;;;;;;;;18.30;64.00;;;;;;5024523;28;19924;-62
2022/04/29 14:08:03;;;;;;;;;;;18.30;63.30;;;;;;5027900;28;19913;-62
2022/04/29 14:10:29;;;;;;;;;;;18.30;62.90;;;;;;5025264;28;19920;-65
2022/04/29 14:12:55;;;;;;;;;;;18.30;62.40;;;;;;5021571;28;19995;-65
2022/04/29 14:15:20;;;;;;;;;;;18.40;63.40;;;;;;5026818;28;19913;-64
2022/04/29 14:17:46;;;;;;;;;;;18.50;62.00;;;;;;5028135;28;19913;-67
2022/04/29 14:20:12;;;;;;;;;;;18.50;62.70;;;;;;5025004;28;19940;-65
2022/04/29 14:22:39;;;;;;;;;;;18.50;63.20;;;;;;5027301;28;19913;-65
2022/04/29 14:25:05;;;;;;;;;;;18.50;62.20;;;;;;5026502;28;19916;-64
2022/04/29 14:27:31;;;;;;;;;;;18.50;62.30;;;;;;5026102;28;19917;-66
2022/04/29 14:29:56;;;;;;;;;;;18.60;61.30;;;;;;5027638;28;20417;-63
2022/04/29 14:32:22;;;;;;;;;;;18.50;61.50;;;;;;5024492;28;20689;-65
2022/04/29 14:34:49;;;;;;;;;;;18.60;60.90;;;;;;5026038;28;19921;-64
2022/04/29 14:37:15;;;;;;;;;;;18.60;61.90;;;;;;5024311;28;19909;-66
2022/04/29 14:39:43;;;;;;;;;;;18.60;61.40;;;;;;5026430;28;19963;-65
2022/04/29 14:42:09;;;;;;;;;;;18.60;61.30;;;;;;5023491;28;19918;-61
2022/04/29 14:44:35;;;;;;;;;;;18.60;61.80;;;;;;5024245;28;19913;-65
2022/04/29 14:47:00;;;;;;;;;;;18.70;61.50;;;;;;5018126;28;19929;-64
2022/04/29 14:49:26;;;;;;;;;;;18.70;62.30;;;;;;5026515;28;19971;-66